Аэропорт: Чебоксары. Чебоксары

ICAO: UWKS

METAR:
2022-06-26 11:00:00
UWKS 261100Z 35005MPS 300V020 CAVOK 23/05 Q1018 R06/010060 NOSIG RMK QFE748
METAR:
2022-06-26 07:39:00
TAF UWKS 260739Z 2609/2618 36007G14MPS 9999 SCT040 TX24/2612Z TN18/2618Z